MST,Max TemperatureF,Mean TemperatureF,Min TemperatureF,Max Dew PointF,MeanDew PointF,Min DewpointF,Max Humidity, Mean Humidity, Min Humidity, Max Sea Level PressureIn, Mean Sea Level PressureIn, Min Sea Level PressureIn, Max VisibilityMiles, Mean VisibilityMiles, Min VisibilityMiles, Max Wind SpeedMPH, Mean Wind SpeedMPH, Max Gust SpeedMPH,PrecipitationIn, CloudCover, Events, WindDirDegrees
2012-1-1,33,26,18,22,19,17,100,80,59,30.68,30.59,30.51,10,10,6,7,1,7,0.00,5,,0
2012-1-2,39,26,12,29,20,10,100,80,59,30.56,30.40,30.29,10,10,8,8,1,10,0.00,1,,11
2012-1-3,40,28,16,24,21,15,96,72,48,30.56,30.46,30.31,10,10,7,9,1,13,0.00,1,,6
2012-1-4,45,31,16,25,20,15,92,65,37,30.61,30.50,30.35,10,10,7,9,1,12,0.00,1,,358
2012-1-5,43,32,21,26,23,17,81,62,43,30.33,30.24,30.20,10,10,10,15,5,18,0.00,6,,262
2012-1-6,29,19,9,18,15,9,92,78,63,30.33,30.25,30.19,10,10,10,9,1,12,0.00,3,,33
2012-1-7,31,24,16,18,16,14,92,71,49,30.52,30.34,30.06,10,10,10,13,5,16,0.00,3,,313
2012-1-8,33,25,17,20,18,14,84,67,49,30.54,30.49,30.44,10,10,10,7,1,8,0.00,3,,122
2012-1-9,37,23,9,24,17,9,96,76,56,30.58,30.47,30.30,10,10,7,6,1,7,0.00,0,,125
2012-1-10,33,25,16,27,23,13,92,82,72,30.39,30.22,30.12,10,8,1,12,3,17,0.03,7,Snow,318
2012-1-11,28,17,5,14,7,2,83,60,37,30.57,30.49,30.38,10,10,10,10,3,14,0.00,0,,15
2012-1-12,27,13,-2,7,3,-5,87,62,37,30.60,30.53,30.46,10,10,9,8,1,8,0.00,0,,279
2012-1-13,32,19,5,14,7,1,88,58,28,30.53,30.43,30.33,10,9,7,5,0,6,0.00,1,,206
2012-1-14,39,27,14,16,12,10,80,56,32,30.30,30.05,29.81,10,10,6,18,5,28,0.00,1,,176
2012-1-15,33,19,5,17,10,1,88,63,37,29.94,29.84,29.73,10,9,2,16,3,21,T,5,Snow,245
2012-1-16,18,12,5,12,8,4,92,76,59,30.21,29.99,29.78,10,6,1,13,3,17,0.01,8,Snow,177
2012-1-17,24,19,13,19,13,7,92,81,70,30.20,29.95,29.79,10,2,0,30,13,38,0.26,8,Fog-Snow,163
2012-1-18,33,28,22,30,23,16,96,85,74,29.99,29.85,29.73,10,4,0,18,11,22,0.45,8,Fog-Snow,150
2012-1-19,36,34,32,32,31,30,96,89,82,29.86,29.70,29.59,10,4,0,21,13,26,0.59,8,Fog-Snow,142
2012-1-20,36,34,32,32,31,30,100,91,82,29.90,29.73,29.55,10,6,1,21,10,26,0.33,8,Snow,156
2012-1-21,38,32,25,34,30,20,100,91,82,29.85,29.47,29.30,10,6,1,20,6,24,0.42,8,Rain-Snow,237
2012-1-22,27,20,12,25,20,9,96,85,74,30.06,29.90,29.80,10,4,1,16,5,20,0.17,7,Snow,151
2012-1-23,33,20,6,27,22,3,92,78,63,30.20,29.85,29.73,10,4,0,12,2,15,0.28,6,Fog-Snow,308
2012-1-24,27,15,2,25,13,-3,100,88,76,30.40,30.22,30.04,10,4,0,10,1,13,0.30,6,Fog-Snow,141
2012-1-25,40,33,26,33,29,24,100,82,64,30.32,30.24,30.13,10,6,1,23,6,33,0.04,6,Snow,186
2012-1-26,38,27,15,32,28,13,92,76,59,30.38,30.09,29.99,10,6,0,18,5,24,0.23,7,Fog-Snow,213
2012-1-27,24,13,2,14,7,1,100,77,54,30.67,30.58,30.39,10,9,5,9,2,9,0.00,1,,315
2012-1-28,26,12,-3,17,7,-6,92,75,57,30.74,30.66,30.60,10,10,7,5,0,7,0.00,5,,195
2012-1-29,36,26,16,30,19,13,92,65,38,30.57,30.27,29.95,10,8,2,16,2,20,0.01,6,Snow,138
2012-1-30,35,27,18,31,26,13,92,81,70,30.15,29.98,29.84,10,4,0,17,4,25,0.19,6,Fog-Snow,154
2012-1-31,35,23,11,23,14,5,100,80,59,30.24,30.16,30.01,10,9,5,6,0,7,T,2,Snow,60